sensor_id;sensor_type;location;lat;lon;timestamp;P1;durP1;ratioP1;P2;durP2;ratioP2
65202;SDS011;51788;45.124;38.966;2022-07-05T00:01:14;34.70;;;21.80;;
65202;SDS011;51788;45.124;38.966;2022-07-05T00:03:40;32.50;;;20.85;;
65202;SDS011;51788;45.124;38.966;2022-07-05T00:06:06;41.28;;;22.55;;
65202;SDS011;51788;45.124;38.966;2022-07-05T00:08:32;33.00;;;21.27;;
65202;SDS011;51788;45.124;38.966;2022-07-05T00:10:58;31.88;;;21.77;;
65202;SDS011;51788;45.124;38.966;2022-07-05T00:13:24;46.15;;;22.50;;
65202;SDS011;51788;45.124;38.966;2022-07-05T00:15:50;43.88;;;22.67;;
65202;SDS011;51788;45.124;38.966;2022-07-05T00:18:17;36.42;;;22.10;;
65202;SDS011;51788;45.124;38.966;2022-07-05T00:20:43;41.80;;;21.77;;
65202;SDS011;51788;45.124;38.966;2022-07-05T00:23:11;36.58;;;22.23;;
65202;SDS011;51788;45.124;38.966;2022-07-05T00:25:37;34.08;;;21.40;;
65202;SDS011;51788;45.124;38.966;2022-07-05T00:28:03;35.15;;;21.05;;
65202;SDS011;51788;45.124;38.966;2022-07-05T00:30:29;36.55;;;21.45;;
65202;SDS011;51788;45.124;38.966;2022-07-05T00:32:55;33.28;;;22.48;;
65202;SDS011;51788;45.124;38.966;2022-07-05T00:35:22;49.97;;;22.85;;
65202;SDS011;51788;45.124;38.966;2022-07-05T00:37:48;49.38;;;22.25;;
65202;SDS011;51788;45.124;38.966;2022-07-05T00:40:14;41.00;;;23.38;;
65202;SDS011;51788;45.124;38.966;2022-07-05T00:42:40;33.33;;;22.48;;
65202;SDS011;51788;45.124;38.966;2022-07-05T00:45:06;37.55;;;23.10;;
65202;SDS011;51788;45.124;38.966;2022-07-05T00:47:33;37.70;;;23.20;;
65202;SDS011;51788;45.124;38.966;2022-07-05T00:49:59;43.10;;;23.63;;
65202;SDS011;51788;45.124;38.966;2022-07-05T00:52:25;46.90;;;23.90;;
65202;SDS011;51788;45.124;38.966;2022-07-05T00:54:51;36.90;;;23.75;;
65202;SDS011;51788;45.124;38.966;2022-07-05T00:57:19;36.10;;;23.48;;
65202;SDS011;51788;45.124;38.966;2022-07-05T00:59:47;39.25;;;23.83;;
65202;SDS011;51788;45.124;38.966;2022-07-05T01:02:13;43.67;;;23.83;;
65202;SDS011;51788;45.124;38.966;2022-07-05T01:04:39;41.58;;;22.77;;
65202;SDS011;51788;45.124;38.966;2022-07-05T01:07:05;35.28;;;23.58;;
65202;SDS011;51788;45.124;38.966;2022-07-05T01:09:31;39.28;;;24.17;;
65202;SDS011;51788;45.124;38.966;2022-07-05T01:11:59;34.13;;;23.83;;
65202;SDS011;51788;45.124;38.966;2022-07-05T01:14:25;34.85;;;24.35;;
65202;SDS011;51788;45.124;38.966;2022-07-05T01:16:52;49.90;;;24.30;;
65202;SDS011;51788;45.124;38.966;2022-07-05T01:19:20;32.03;;;23.63;;
65202;SDS011;51788;45.124;38.966;2022-07-05T01:21:47;36.92;;;23.67;;
65202;SDS011;51788;45.124;38.966;2022-07-05T01:24:14;34.67;;;23.73;;
65202;SDS011;51788;45.124;38.966;2022-07-05T01:26:43;40.53;;;25.25;;
65202;SDS011;51788;45.124;38.966;2022-07-05T01:29:11;40.05;;;24.77;;
65202;SDS011;51788;45.124;38.966;2022-07-05T01:31:38;40.85;;;25.13;;
65202;SDS011;51788;45.124;38.966;2022-07-05T01:34:06;49.75;;;25.15;;
65202;SDS011;51788;45.124;38.966;2022-07-05T01:36:33;47.78;;;25.15;;
65202;SDS011;51788;45.124;38.966;2022-07-05T01:39:03;44.67;;;24.15;;
65202;SDS011;51788;45.124;38.966;2022-07-05T01:41:30;40.95;;;24.63;;
65202;SDS011;51788;45.124;38.966;2022-07-05T01:43:56;46.15;;;25.05;;
65202;SDS011;51788;45.124;38.966;2022-07-05T01:46:23;42.80;;;24.45;;
65202;SDS011;51788;45.124;38.966;2022-07-05T01:48:53;44.25;;;25.60;;
65202;SDS011;51788;45.124;38.966;2022-07-05T01:51:24;44.38;;;23.80;;
65202;SDS011;51788;45.124;38.966;2022-07-05T01:53:58;33.22;;;23.70;;
65202;SDS011;51788;45.124;38.966;2022-07-05T01:56:24;37.42;;;23.83;;
65202;SDS011;51788;45.124;38.966;2022-07-05T01:58:51;36.85;;;24.33;;
65202;SDS011;51788;45.124;38.966;2022-07-05T02:01:34;36.60;;;24.15;;
65202;SDS011;51788;45.124;38.966;2022-07-05T02:04:03;41.28;;;25.38;;
65202;SDS011;51788;45.124;38.966;2022-07-05T02:06:31;34.83;;;24.52;;
65202;SDS011;51788;45.124;38.966;2022-07-05T02:08:59;38.70;;;22.90;;
65202;SDS011;51788;45.124;38.966;2022-07-05T02:11:26;36.90;;;23.67;;
65202;SDS011;51788;45.124;38.966;2022-07-05T02:13:52;40.97;;;24.20;;
65202;SDS011;51788;45.124;38.966;2022-07-05T02:16:21;39.08;;;24.55;;
65202;SDS011;51788;45.124;38.966;2022-07-05T02:18:49;45.33;;;24.38;;
65202;SDS011;51788;45.124;38.966;2022-07-05T02:21:15;34.63;;;23.48;;
65202;SDS011;51788;45.124;38.966;2022-07-05T02:23:42;31.55;;;22.70;;
65202;SDS011;51788;45.124;38.966;2022-07-05T02:26:09;35.70;;;24.48;;
65202;SDS011;51788;45.124;38.966;2022-07-05T02:28:37;35.20;;;23.98;;
65202;SDS011;51788;45.124;38.966;2022-07-05T02:31:05;36.88;;;23.10;;
65202;SDS011;51788;45.124;38.966;2022-07-05T02:33:31;32.67;;;23.08;;
65202;SDS011;51788;45.124;38.966;2022-07-05T02:35:57;44.15;;;22.67;;
65202;SDS011;51788;45.124;38.966;2022-07-05T02:38:30;35.13;;;22.65;;
65202;SDS011;51788;45.124;38.966;2022-07-05T02:40:56;40.47;;;22.88;;
65202;SDS011;51788;45.124;38.966;2022-07-05T02:43:22;37.55;;;22.85;;
65202;SDS011;51788;45.124;38.966;2022-07-05T02:45:49;42.55;;;23.08;;
65202;SDS011;51788;45.124;38.966;2022-07-05T02:48:15;35.08;;;22.17;;
65202;SDS011;51788;45.124;38.966;2022-07-05T02:50:42;42.85;;;22.77;;
65202;SDS011;51788;45.124;38.966;2022-07-05T02:53:08;36.75;;;22.45;;
65202;SDS011;51788;45.124;38.966;2022-07-05T02:55:37;34.67;;;22.10;;
65202;SDS011;51788;45.124;38.966;2022-07-05T02:58:03;43.53;;;21.83;;
65202;SDS011;51788;45.124;38.966;2022-07-05T03:00:30;32.53;;;22.00;;
65202;SDS011;51788;45.124;38.966;2022-07-05T03:02:58;26.80;;;20.42;;
65202;SDS011;51788;45.124;38.966;2022-07-05T03:05:26;40.63;;;22.10;;
65202;SDS011;51788;45.124;38.966;2022-07-05T03:07:57;48.00;;;21.73;;
65202;SDS011;51788;45.124;38.966;2022-07-05T03:10:25;36.70;;;21.77;;
65202;SDS011;51788;45.124;38.966;2022-07-05T03:12:52;49.75;;;21.63;;
65202;SDS011;51788;45.124;38.966;2022-07-05T03:15:18;35.53;;;20.58;;
65202;SDS011;51788;45.124;38.966;2022-07-05T03:17:45;42.92;;;21.42;;
65202;SDS011;51788;45.124;38.966;2022-07-05T03:20:14;33.55;;;21.02;;
65202;SDS011;51788;45.124;38.966;2022-07-05T03:22:40;33.85;;;20.65;;
65202;SDS011;51788;45.124;38.966;2022-07-05T03:25:07;39.20;;;21.15;;
65202;SDS011;51788;45.124;38.966;2022-07-05T03:27:34;36.78;;;20.17;;
65202;SDS011;51788;45.124;38.966;2022-07-05T03:30:00;33.53;;;20.23;;
65202;SDS011;51788;45.124;38.966;2022-07-05T03:32:30;32.72;;;18.90;;
65202;SDS011;51788;45.124;38.966;2022-07-05T03:34:57;33.30;;;19.73;;
65202;SDS011;51788;45.124;38.966;2022-07-05T03:37:23;32.58;;;20.42;;
65202;SDS011;51788;45.124;38.966;2022-07-05T03:39:50;36.08;;;18.77;;
65202;SDS011;51788;45.124;38.966;2022-07-05T03:42:16;35.55;;;18.95;;
65202;SDS011;51788;45.124;38.966;2022-07-05T03:44:42;31.98;;;19.35;;
65202;SDS011;51788;45.124;38.966;2022-07-05T03:47:10;28.42;;;19.02;;
65202;SDS011;51788;45.124;38.966;2022-07-05T03:49:36;26.13;;;18.77;;
65202;SDS011;51788;45.124;38.966;2022-07-05T03:52:03;29.40;;;19.20;;
65202;SDS011;51788;45.124;38.966;2022-07-05T03:54:30;25.42;;;20.25;;
65202;SDS011;51788;45.124;38.966;2022-07-05T03:56:56;35.53;;;21.38;;
65202;SDS011;51788;45.124;38.966;2022-07-05T03:59:22;30.38;;;19.38;;
65202;SDS011;51788;45.124;38.966;2022-07-05T04:01:48;29.75;;;18.17;;
65202;SDS011;51788;45.124;38.966;2022-07-05T04:04:15;27.60;;;17.88;;
65202;SDS011;51788;45.124;38.966;2022-07-05T04:06:41;32.75;;;20.13;;
65202;SDS011;51788;45.124;38.966;2022-07-05T04:09:08;38.80;;;19.55;;
65202;SDS011;51788;45.124;38.966;2022-07-05T04:11:34;31.52;;;19.60;;
65202;SDS011;51788;45.124;38.966;2022-07-05T04:14:00;30.45;;;20.05;;
65202;SDS011;51788;45.124;38.966;2022-07-05T04:16:26;31.65;;;19.42;;
65202;SDS011;51788;45.124;38.966;2022-07-05T04:18:52;33.63;;;19.45;;
65202;SDS011;51788;45.124;38.966;2022-07-05T04:21:19;39.08;;;18.88;;
65202;SDS011;51788;45.124;38.966;2022-07-05T04:23:46;33.38;;;18.95;;
65202;SDS011;51788;45.124;38.966;2022-07-05T04:26:13;34.60;;;18.67;;
65202;SDS011;51788;45.124;38.966;2022-07-05T04:28:42;81.50;;;20.30;;
65202;SDS011;51788;45.124;38.966;2022-07-05T04:31:11;37.90;;;19.55;;
65202;SDS011;51788;45.124;38.966;2022-07-05T04:33:43;37.70;;;18.13;;
65202;SDS011;51788;45.124;38.966;2022-07-05T04:36:12;29.38;;;18.40;;
65202;SDS011;51788;45.124;38.966;2022-07-05T04:38:39;27.73;;;16.67;;
65202;SDS011;51788;45.124;38.966;2022-07-05T04:41:06;37.78;;;17.73;;
65202;SDS011;51788;45.124;38.966;2022-07-05T04:43:33;30.38;;;17.55;;
65202;SDS011;51788;45.124;38.966;2022-07-05T04:46:02;34.85;;;16.20;;
65202;SDS011;51788;45.124;38.966;2022-07-05T04:48:28;27.98;;;16.60;;
65202;SDS011;51788;45.124;38.966;2022-07-05T04:50:54;28.83;;;17.13;;
65202;SDS011;51788;45.124;38.966;2022-07-05T04:53:21;23.02;;;15.38;;
65202;SDS011;51788;45.124;38.966;2022-07-05T04:55:47;38.63;;;16.88;;
65202;SDS011;51788;45.124;38.966;2022-07-05T04:58:13;33.10;;;16.77;;
65202;SDS011;51788;45.124;38.966;2022-07-05T05:00:39;31.35;;;15.88;;
65202;SDS011;51788;45.124;38.966;2022-07-05T05:03:05;32.40;;;16.85;;
65202;SDS011;51788;45.124;38.966;2022-07-05T05:05:31;32.88;;;16.92;;
65202;SDS011;51788;45.124;38.966;2022-07-05T05:07:57;28.63;;;16.88;;
65202;SDS011;51788;45.124;38.966;2022-07-05T05:10:23;30.02;;;16.15;;
65202;SDS011;51788;45.124;38.966;2022-07-05T05:12:49;23.13;;;16.05;;
65202;SDS011;51788;45.124;38.966;2022-07-05T05:15:15;28.40;;;17.35;;
65202;SDS011;51788;45.124;38.966;2022-07-05T05:17:42;31.35;;;14.63;;
65202;SDS011;51788;45.124;38.966;2022-07-05T05:20:12;22.27;;;14.75;;
65202;SDS011;51788;45.124;38.966;2022-07-05T05:22:40;23.52;;;15.85;;
65202;SDS011;51788;45.124;38.966;2022-07-05T05:25:07;27.58;;;14.63;;
65202;SDS011;51788;45.124;38.966;2022-07-05T05:27:34;20.50;;;13.73;;
65202;SDS011;51788;45.124;38.966;2022-07-05T05:30:01;26.38;;;14.55;;
65202;SDS011;51788;45.124;38.966;2022-07-05T05:32:27;21.50;;;13.23;;
65202;SDS011;51788;45.124;38.966;2022-07-05T05:34:53;25.42;;;12.90;;
65202;SDS011;51788;45.124;38.966;2022-07-05T05:37:19;27.27;;;13.43;;
65202;SDS011;51788;45.124;38.966;2022-07-05T05:39:45;27.80;;;12.93;;
65202;SDS011;51788;45.124;38.966;2022-07-05T05:42:11;26.52;;;13.52;;
65202;SDS011;51788;45.124;38.966;2022-07-05T05:44:37;26.58;;;13.05;;
65202;SDS011;51788;45.124;38.966;2022-07-05T05:47:03;23.98;;;13.52;;
65202;SDS011;51788;45.124;38.966;2022-07-05T05:49:29;27.13;;;13.30;;
65202;SDS011;51788;45.124;38.966;2022-07-05T05:51:55;21.20;;;12.48;;
65202;SDS011;51788;45.124;38.966;2022-07-05T05:54:21;22.25;;;13.18;;
65202;SDS011;51788;45.124;38.966;2022-07-05T05:56:46;19.83;;;12.30;;
65202;SDS011;51788;45.124;38.966;2022-07-05T05:59:12;22.02;;;11.32;;
65202;SDS011;51788;45.124;38.966;2022-07-05T06:01:38;22.38;;;11.95;;
65202;SDS011;51788;45.124;38.966;2022-07-05T06:04:04;17.40;;;11.73;;
65202;SDS011;51788;45.124;38.966;2022-07-05T06:06:30;22.30;;;12.65;;
65202;SDS011;51788;45.124;38.966;2022-07-05T06:08:56;17.77;;;11.70;;
65202;SDS011;51788;45.124;38.966;2022-07-05T06:11:22;22.27;;;12.90;;
65202;SDS011;51788;45.124;38.966;2022-07-05T06:13:48;20.05;;;12.45;;
65202;SDS011;51788;45.124;38.966;2022-07-05T06:16:14;19.02;;;11.50;;
65202;SDS011;51788;45.124;38.966;2022-07-05T06:18:40;20.38;;;12.23;;
65202;SDS011;51788;45.124;38.966;2022-07-05T06:21:06;15.02;;;10.88;;
65202;SDS011;51788;45.124;38.966;2022-07-05T06:23:32;14.93;;;10.73;;
65202;SDS011;51788;45.124;38.966;2022-07-05T06:25:58;16.50;;;11.25;;
65202;SDS011;51788;45.124;38.966;2022-07-05T06:28:24;14.98;;;9.48;;
65202;SDS011;51788;45.124;38.966;2022-07-05T06:30:50;12.60;;;11.02;;
65202;SDS011;51788;45.124;38.966;2022-07-05T06:33:18;15.23;;;10.05;;
65202;SDS011;51788;45.124;38.966;2022-07-05T06:35:45;22.73;;;10.05;;
65202;SDS011;51788;45.124;38.966;2022-07-05T06:38:11;10.10;;;8.50;;
65202;SDS011;51788;45.124;38.966;2022-07-05T06:40:38;14.63;;;9.55;;
65202;SDS011;51788;45.124;38.966;2022-07-05T06:43:08;20.75;;;10.18;;
65202;SDS011;51788;45.124;38.966;2022-07-05T06:45:58;16.70;;;11.07;;
65202;SDS011;51788;45.124;38.966;2022-07-05T06:48:25;12.02;;;10.15;;
65202;SDS011;51788;45.124;38.966;2022-07-05T06:50:51;15.25;;;10.70;;
65202;SDS011;51788;45.124;38.966;2022-07-05T06:53:17;14.02;;;9.85;;
65202;SDS011;51788;45.124;38.966;2022-07-05T06:55:43;21.13;;;10.57;;
65202;SDS011;51788;45.124;38.966;2022-07-05T06:58:12;17.13;;;9.38;;
65202;SDS011;51788;45.124;38.966;2022-07-05T07:00:40;14.65;;;9.75;;
65202;SDS011;51788;45.124;38.966;2022-07-05T07:03:07;13.15;;;9.20;;
65202;SDS011;51788;45.124;38.966;2022-07-05T07:05:33;11.48;;;9.57;;
65202;SDS011;51788;45.124;38.966;2022-07-05T07:07:59;21.35;;;10.02;;
65202;SDS011;51788;45.124;38.966;2022-07-05T07:10:44;20.17;;;10.13;;
65202;SDS011;51788;45.124;38.966;2022-07-05T07:13:10;38.58;;;24.95;;
65202;SDS011;51788;45.124;38.966;2022-07-05T07:15:36;14.50;;;10.73;;
65202;SDS011;51788;45.124;38.966;2022-07-05T07:18:06;18.70;;;8.55;;
65202;SDS011;51788;45.124;38.966;2022-07-05T07:20:32;12.45;;;8.00;;
65202;SDS011;51788;45.124;38.966;2022-07-05T07:22:58;11.07;;;8.27;;
65202;SDS011;51788;45.124;38.966;2022-07-05T07:25:24;10.85;;;7.82;;
65202;SDS011;51788;45.124;38.966;2022-07-05T07:27:51;19.10;;;8.77;;
65202;SDS011;51788;45.124;38.966;2022-07-05T07:30:20;15.93;;;8.48;;
65202;SDS011;51788;45.124;38.966;2022-07-05T07:32:48;15.82;;;8.60;;
65202;SDS011;51788;45.124;38.966;2022-07-05T07:35:14;11.82;;;8.00;;
65202;SDS011;51788;45.124;38.966;2022-07-05T07:37:40;11.18;;;7.70;;
65202;SDS011;51788;45.124;38.966;2022-07-05T07:40:07;9.77;;;8.23;;
65202;SDS011;51788;45.124;38.966;2022-07-05T07:42:34;17.35;;;8.18;;
65202;SDS011;51788;45.124;38.966;2022-07-05T07:45:00;13.75;;;8.00;;
65202;SDS011;51788;45.124;38.966;2022-07-05T07:47:30;9.55;;;7.43;;
65202;SDS011;51788;45.124;38.966;2022-07-05T07:49:57;10.25;;;8.38;;
65202;SDS011;51788;45.124;38.966;2022-07-05T07:52:23;8.40;;;7.45;;
65202;SDS011;51788;45.124;38.966;2022-07-05T07:54:49;9.95;;;7.38;;
65202;SDS011;51788;45.124;38.966;2022-07-05T07:57:15;12.98;;;6.55;;
65202;SDS011;51788;45.124;38.966;2022-07-05T07:59:41;13.25;;;7.75;;
65202;SDS011;51788;45.124;38.966;2022-07-05T08:02:07;12.02;;;8.05;;
65202;SDS011;51788;45.124;38.966;2022-07-05T08:04:33;13.40;;;7.95;;
65202;SDS011;51788;45.124;38.966;2022-07-05T08:06:59;13.27;;;7.50;;
65202;SDS011;51788;45.124;38.966;2022-07-05T08:09:25;30.58;;;8.05;;
65202;SDS011;51788;45.124;38.966;2022-07-05T08:11:51;20.67;;;7.85;;
65202;SDS011;51788;45.124;38.966;2022-07-05T08:14:19;9.02;;;6.32;;
65202;SDS011;51788;45.124;38.966;2022-07-05T08:16:45;8.80;;;6.72;;
65202;SDS011;51788;45.124;38.966;2022-07-05T08:19:12;15.75;;;7.40;;
65202;SDS011;51788;45.124;38.966;2022-07-05T08:21:57;10.50;;;6.88;;
65202;SDS011;51788;45.124;38.966;2022-07-05T08:24:23;18.05;;;6.72;;
65202;SDS011;51788;45.124;38.966;2022-07-05T08:26:48;9.70;;;7.05;;
65202;SDS011;51788;45.124;38.966;2022-07-05T08:29:14;11.52;;;7.10;;
65202;SDS011;51788;45.124;38.966;2022-07-05T08:34:17;27.55;;;7.10;;
65202;SDS011;51788;45.124;38.966;2022-07-05T08:36:44;15.00;;;7.75;;
65202;SDS011;51788;45.124;38.966;2022-07-05T08:39:10;9.20;;;6.45;;
65202;SDS011;51788;45.124;38.966;2022-07-05T08:41:37;7.75;;;6.05;;
65202;SDS011;51788;45.124;38.966;2022-07-05T08:44:04;13.88;;;6.07;;
65202;SDS011;51788;45.124;38.966;2022-07-05T08:46:31;8.23;;;5.82;;
65202;SDS011;51788;45.124;38.966;2022-07-05T08:48:59;9.60;;;5.18;;
65202;SDS011;51788;45.124;38.966;2022-07-05T08:51:27;10.95;;;5.82;;
65202;SDS011;51788;45.124;38.966;2022-07-05T08:53:54;9.45;;;5.93;;
65202;SDS011;51788;45.124;38.966;2022-07-05T08:56:21;6.45;;;5.43;;
65202;SDS011;51788;45.124;38.966;2022-07-05T08:58:47;6.25;;;5.75;;
65202;SDS011;51788;45.124;38.966;2022-07-05T09:01:15;9.70;;;5.35;;
65202;SDS011;51788;45.124;38.966;2022-07-05T09:03:51;11.45;;;6.22;;
65202;SDS011;51788;45.124;38.966;2022-07-05T09:06:18;12.10;;;7.40;;
65202;SDS011;51788;45.124;38.966;2022-07-05T09:08:50;10.60;;;6.72;;
65202;SDS011;51788;45.124;38.966;2022-07-05T09:11:21;14.15;;;7.22;;
65202;SDS011;51788;45.124;38.966;2022-07-05T09:13:50;12.68;;;6.55;;
65202;SDS011;51788;45.124;38.966;2022-07-05T09:16:16;7.65;;;6.35;;
65202;SDS011;51788;45.124;38.966;2022-07-05T09:18:44;18.13;;;6.68;;
65202;SDS011;51788;45.124;38.966;2022-07-05T09:21:15;16.63;;;6.70;;
65202;SDS011;51788;45.124;38.966;2022-07-05T09:23:57;11.70;;;6.90;;
65202;SDS011;51788;45.124;38.966;2022-07-05T09:26:38;8.48;;;6.72;;
65202;SDS011;51788;45.124;38.966;2022-07-05T09:29:06;12.43;;;6.82;;
65202;SDS011;51788;45.124;38.966;2022-07-05T09:31:38;15.52;;;6.50;;
65202;SDS011;51788;45.124;38.966;2022-07-05T09:34:09;12.38;;;6.68;;
65202;SDS011;51788;45.124;38.966;2022-07-05T09:42:14;18.77;;;6.63;;
65202;SDS011;51788;45.124;38.966;2022-07-05T09:44:46;9.18;;;6.40;;
65202;SDS011;51788;45.124;38.966;2022-07-05T09:47:20;10.35;;;6.70;;
65202;SDS011;51788;45.124;38.966;2022-07-05T09:49:48;9.70;;;6.13;;
65202;SDS011;51788;45.124;38.966;2022-07-05T09:55:07;16.75;;;5.97;;
65202;SDS011;51788;45.124;38.966;2022-07-05T09:57:42;14.48;;;6.60;;
65202;SDS011;51788;45.124;38.966;2022-07-05T10:00:10;7.53;;;6.40;;
65202;SDS011;51788;45.124;38.966;2022-07-05T10:02:38;7.28;;;5.75;;
65202;SDS011;51788;45.124;38.966;2022-07-05T10:05:09;6.65;;;5.60;;
65202;SDS011;51788;45.124;38.966;2022-07-05T10:07:40;17.95;;;7.00;;
65202;SDS011;51788;45.124;38.966;2022-07-05T10:10:13;10.50;;;6.28;;
65202;SDS011;51788;45.124;38.966;2022-07-05T10:12:41;6.88;;;5.65;;
65202;SDS011;51788;45.124;38.966;2022-07-05T10:15:10;9.43;;;5.53;;
65202;SDS011;51788;45.124;38.966;2022-07-05T10:20:39;6.05;;;5.40;;
65202;SDS011;51788;45.124;38.966;2022-07-05T10:23:11;11.07;;;5.82;;
65202;SDS011;51788;45.124;38.966;2022-07-05T10:25:40;13.05;;;7.60;;
65202;SDS011;51788;45.124;38.966;2022-07-05T10:28:08;10.95;;;5.68;;
65202;SDS011;51788;45.124;38.966;2022-07-05T10:30:35;12.10;;;6.85;;
65202;SDS011;51788;45.124;38.966;2022-07-05T10:33:02;9.35;;;6.63;;
65202;SDS011;51788;45.124;38.966;2022-07-05T10:35:29;15.18;;;6.75;;
65202;SDS011;51788;45.124;38.966;2022-07-05T10:37:55;12.73;;;6.40;;
65202;SDS011;51788;45.124;38.966;2022-07-05T10:40:22;11.98;;;6.03;;
65202;SDS011;51788;45.124;38.966;2022-07-05T10:42:50;13.90;;;5.72;;
65202;SDS011;51788;45.124;38.966;2022-07-05T10:50:49;10.02;;;6.45;;
65202;SDS011;51788;45.124;38.966;2022-07-05T10:53:29;8.50;;;6.15;;
65202;SDS011;51788;45.124;38.966;2022-07-05T10:58:39;8.00;;;6.25;;
65202;SDS011;51788;45.124;38.966;2022-07-05T11:03:49;11.60;;;5.78;;
65202;SDS011;51788;45.124;38.966;2022-07-05T11:11:37;17.13;;;5.70;;
65202;SDS011;51788;45.124;38.966;2022-07-05T11:16:46;10.23;;;6.18;;
65202;SDS011;51788;45.124;38.966;2022-07-05T11:19:14;19.45;;;5.95;;
65202;SDS011;51788;45.124;38.966;2022-07-05T11:22:01;6.40;;;5.25;;
65202;SDS011;51788;45.124;38.966;2022-07-05T11:24:34;12.55;;;5.72;;
65202;SDS011;51788;45.124;38.966;2022-07-05T11:27:03;10.05;;;5.75;;
65202;SDS011;51788;45.124;38.966;2022-07-05T11:32:08;15.23;;;6.50;;
65202;SDS011;51788;45.124;38.966;2022-07-05T11:34:35;19.33;;;7.57;;
65202;SDS011;51788;45.124;38.966;2022-07-05T11:42:47;9.73;;;5.70;;
65202;SDS011;51788;45.124;38.966;2022-07-05T11:45:14;13.95;;;6.30;;
65202;SDS011;51788;45.124;38.966;2022-07-05T11:47:41;6.72;;;5.75;;
65202;SDS011;51788;45.124;38.966;2022-07-05T11:50:07;6.05;;;5.43;;
65202;SDS011;51788;45.124;38.966;2022-07-05T11:52:35;7.75;;;5.28;;
65202;SDS011;51788;45.124;38.966;2022-07-05T11:55:03;6.55;;;5.55;;
65202;SDS011;51788;45.124;38.966;2022-07-05T11:57:30;9.63;;;5.47;;
65202;SDS011;51788;45.124;38.966;2022-07-05T11:59:56;8.30;;;6.22;;
65202;SDS011;51788;45.124;38.966;2022-07-05T12:02:22;6.20;;;5.60;;
65202;SDS011;51788;45.124;38.966;2022-07-05T12:04:52;20.63;;;5.70;;
65202;SDS011;51788;45.124;38.966;2022-07-05T12:07:29;20.17;;;6.32;;
65202;SDS011;51788;45.124;38.966;2022-07-05T12:09:57;14.77;;;6.95;;
65202;SDS011;51788;45.124;38.966;2022-07-05T12:12:43;12.38;;;6.05;;
65202;SDS011;51788;45.124;38.966;2022-07-05T12:17:39;14.18;;;6.85;;
65202;SDS011;51788;45.124;38.966;2022-07-05T12:20:08;7.90;;;6.05;;
65202;SDS011;51788;45.124;38.966;2022-07-05T12:22:37;6.40;;;5.78;;
65202;SDS011;51788;45.124;38.966;2022-07-05T12:25:06;28.35;;;7.78;;
65202;SDS011;51788;45.124;38.966;2022-07-05T12:27:38;7.80;;;6.40;;
65202;SDS011;51788;45.124;38.966;2022-07-05T12:32:52;16.65;;;6.50;;
65202;SDS011;51788;45.124;38.966;2022-07-05T12:38:05;11.23;;;5.43;;
65202;SDS011;51788;45.124;38.966;2022-07-05T12:40:32;8.57;;;5.45;;
65202;SDS011;51788;45.124;38.966;2022-07-05T12:43:03;11.25;;;5.85;;
65202;SDS011;51788;45.124;38.966;2022-07-05T12:45:31;8.80;;;5.65;;
65202;SDS011;51788;45.124;38.966;2022-07-05T12:47:59;11.55;;;5.50;;
65202;SDS011;51788;45.124;38.966;2022-07-05T12:50:27;5.75;;;5.15;;
65202;SDS011;51788;45.124;38.966;2022-07-05T12:55:47;13.35;;;6.28;;
65202;SDS011;51788;45.124;38.966;2022-07-05T12:58:45;17.60;;;7.47;;
65202;SDS011;51788;45.124;38.966;2022-07-05T13:04:04;29.08;;;7.30;;
65202;SDS011;51788;45.124;38.966;2022-07-05T13:06:44;17.27;;;6.85;;
65202;SDS011;51788;45.124;38.966;2022-07-05T13:09:15;21.25;;;6.80;;
65202;SDS011;51788;45.124;38.966;2022-07-05T13:12:05;18.00;;;6.35;;
65202;SDS011;51788;45.124;38.966;2022-07-05T13:14:45;14.60;;;6.65;;
65202;SDS011;51788;45.124;38.966;2022-07-05T13:17:14;11.20;;;6.28;;
65202;SDS011;51788;45.124;38.966;2022-07-05T13:19:42;13.23;;;6.78;;
65202;SDS011;51788;45.124;38.966;2022-07-05T13:22:09;18.60;;;6.03;;
65202;SDS011;51788;45.124;38.966;2022-07-05T13:24:36;29.95;;;7.20;;
65202;SDS011;51788;45.124;38.966;2022-07-05T13:27:03;12.10;;;6.15;;
65202;SDS011;51788;45.124;38.966;2022-07-05T13:29:30;18.30;;;6.50;;
65202;SDS011;51788;45.124;38.966;2022-07-05T13:31:56;17.55;;;6.70;;
65202;SDS011;51788;45.124;38.966;2022-07-05T13:34:23;30.08;;;6.82;;
65202;SDS011;51788;45.124;38.966;2022-07-05T13:36:54;8.18;;;6.20;;
65202;SDS011;51788;45.124;38.966;2022-07-05T13:39:21;14.23;;;5.50;;
65202;SDS011;51788;45.124;38.966;2022-07-05T13:41:50;12.85;;;5.97;;
65202;SDS011;51788;45.124;38.966;2022-07-05T13:44:21;12.02;;;6.20;;
65202;SDS011;51788;45.124;38.966;2022-07-05T13:46:47;8.80;;;5.78;;
65202;SDS011;51788;45.124;38.966;2022-07-05T13:49:13;12.30;;;6.40;;
65202;SDS011;51788;45.124;38.966;2022-07-05T13:51:39;6.25;;;5.65;;
65202;SDS011;51788;45.124;38.966;2022-07-05T13:54:05;15.10;;;6.45;;
65202;SDS011;51788;45.124;38.966;2022-07-05T13:56:32;15.13;;;6.05;;
65202;SDS011;51788;45.124;38.966;2022-07-05T13:58:58;18.30;;;6.22;;
65202;SDS011;51788;45.124;38.966;2022-07-05T14:01:25;20.45;;;6.85;;
65202;SDS011;51788;45.124;38.966;2022-07-05T14:03:59;11.13;;;7.17;;
65202;SDS011;51788;45.124;38.966;2022-07-05T14:06:31;11.52;;;5.60;;
65202;SDS011;51788;45.124;38.966;2022-07-05T14:08:57;17.27;;;6.55;;
65202;SDS011;51788;45.124;38.966;2022-07-05T14:11:24;15.93;;;6.22;;
65202;SDS011;51788;45.124;38.966;2022-07-05T14:13:53;13.50;;;6.60;;
65202;SDS011;51788;45.124;38.966;2022-07-05T14:16:19;10.75;;;6.50;;
65202;SDS011;51788;45.124;38.966;2022-07-05T14:18:46;18.15;;;6.78;;
65202;SDS011;51788;45.124;38.966;2022-07-05T14:21:12;8.90;;;5.82;;
65202;SDS011;51788;45.124;38.966;2022-07-05T14:23:43;18.10;;;6.20;;
65202;SDS011;51788;45.124;38.966;2022-07-05T14:26:12;27.70;;;7.72;;
65202;SDS011;51788;45.124;38.966;2022-07-05T14:28:38;14.95;;;5.93;;
65202;SDS011;51788;45.124;38.966;2022-07-05T14:31:04;13.80;;;6.13;;
65202;SDS011;51788;45.124;38.966;2022-07-05T14:33:31;7.80;;;5.63;;
65202;SDS011;51788;45.124;38.966;2022-07-05T14:35:57;23.10;;;6.07;;
65202;SDS011;51788;45.124;38.966;2022-07-05T14:38:23;8.13;;;6.53;;
65202;SDS011;51788;45.124;38.966;2022-07-05T14:40:48;28.50;;;6.95;;
65202;SDS011;51788;45.124;38.966;2022-07-05T14:43:14;29.85;;;7.18;;
65202;SDS011;51788;45.124;38.966;2022-07-05T14:45:40;14.50;;;5.85;;
65202;SDS011;51788;45.124;38.966;2022-07-05T14:48:06;12.00;;;6.50;;
65202;SDS011;51788;45.124;38.966;2022-07-05T14:50:32;13.68;;;5.80;;
65202;SDS011;51788;45.124;38.966;2022-07-05T14:52:58;17.60;;;6.80;;
65202;SDS011;51788;45.124;38.966;2022-07-05T14:55:31;13.38;;;6.20;;
65202;SDS011;51788;45.124;38.966;2022-07-05T14:57:58;8.35;;;6.00;;
65202;SDS011;51788;45.124;38.966;2022-07-05T15:00:24;11.00;;;6.38;;
65202;SDS011;51788;45.124;38.966;2022-07-05T15:02:50;12.43;;;6.00;;
65202;SDS011;51788;45.124;38.966;2022-07-05T15:05:16;24.48;;;6.25;;
65202;SDS011;51788;45.124;38.966;2022-07-05T15:07:42;18.40;;;6.05;;
65202;SDS011;51788;45.124;38.966;2022-07-05T15:10:09;19.33;;;5.70;;
65202;SDS011;51788;45.124;38.966;2022-07-05T15:12:35;11.23;;;6.18;;
65202;SDS011;51788;45.124;38.966;2022-07-05T15:15:01;36.35;;;6.43;;